Sparta, Wisconsin
Current Conditions -  °F | °C
As of 6:35 PM on Saturday 25 Oct 2014 (Local Time) from KCMY Reporting Station
Clear Clear  
Wind Chill: 57°   Ceiling: Unl
Heat Index: 57°   Visibility: 10mi
Dew Point: 24°   Wind: 8mph
Humidity: 28%   Direction: 280°W
Pressure: 29.99"   Gusts: NA
Location:  43.94°N, 90.82°W
Report Text: KCMY 252335Z AUTO 28007KT 10SM CLR 14/M04 A2999 RMK AO2 T01391043
Loading
Personal Weather Stations






























Interactive Weather Map
Tropical Storm Tracking
New forecast layout! Learn more

10-Day Weather Forecast

Advertisements
Track Severe Weather on mobile